Time;durP1;ratioP1;P1;durP2;ratioP2;P2;SDS_P1;SDS_P2;PMS_P1;PMS_P2;Temp;Humidity;BMP_temperature;BMP_pressure;BME280_temperature;BME280_humidity;BME280_pressure;Samples;Min_cycle;Max_cycle;Signal;HPM_P1;HPM_P2
2021/07/05 00:00:25;;;;;;;9.68;8.68;;;;;;;22.82;69.49;98586.82;1747735;80;21139;-45
2021/07/05 00:02:52;;;;;;;10.00;8.55;;;;;;;22.81;69.69;98591.42;1759673;80;20977;-45
2021/07/05 00:05:18;;;;;;;9.43;8.45;;;;;;;22.81;69.81;98591.42;1753766;80;21506;-45
2021/07/05 00:07:47;;;;;;;9.53;8.53;;;;;;;22.81;69.98;98586.66;1761174;80;21081;-45
2021/07/05 00:10:19;;;;;;;10.13;8.80;;;;;;;22.86;70.18;98588.04;1746599;80;21045;-45
2021/07/05 00:12:48;;;;;;;11.33;8.83;;;;;;;22.87;70.43;98584.05;1694811;84;20976;-45
2021/07/05 00:15:20;;;;;;;13.38;8.45;;;;;;;22.88;70.51;98589.13;1768888;81;21527;-45
2021/07/05 00:17:50;;;;;;;10.30;7.87;;;;;;;22.90;70.48;98586.66;1765403;80;21510;-45
2021/07/05 00:20:18;;;;;;;11.63;8.10;;;;;;;22.95;70.44;98590.19;1763768;81;20961;-45
2021/07/05 00:22:47;;;;;;;11.00;8.85;;;;;;;23.00;70.56;98588.80;1757373;80;21025;-45
2021/07/05 00:25:14;;;;;;;10.88;8.40;;;;;;;23.05;70.36;98582.66;1745500;80;21552;-45
2021/07/05 00:27:40;;;;;;;9.45;8.08;;;;;;;23.07;70.34;98593.27;1757978;80;21017;-45
2021/07/05 00:30:08;;;;;;;10.50;8.15;;;;;;;23.09;70.08;98588.80;1759433;80;21597;-45
2021/07/05 00:32:37;;;;;;;9.58;8.03;;;;;;;23.10;69.96;98593.10;1754101;80;20984;-45
2021/07/05 00:35:07;;;;;;;9.50;8.53;;;;;;;23.12;70.07;98595.41;1759169;80;20966;-44
2021/07/05 00:37:33;;;;;;;12.78;8.25;;;;;;;23.13;70.07;98588.66;1765879;80;21092;-45
2021/07/05 00:39:59;;;;;;;10.58;8.18;;;;;;;23.13;70.07;98596.34;1760318;81;21631;-45
2021/07/05 00:42:26;;;;;;;11.15;8.53;;;;;;;22.87;70.01;98561.33;1721908;80;20973;-45
2021/07/05 00:44:53;;;;;;;10.58;7.33;;;;;;;23.12;69.93;98598.95;1755445;80;21021;-44
2021/07/05 00:47:19;;;;;;;12.30;7.75;;;;;;;23.15;69.76;98597.24;1712438;80;21084;-45
2021/07/05 00:49:46;;;;;;;12.98;8.35;;;;;;;23.17;69.62;98596.17;1760174;80;21211;-45
2021/07/05 00:52:12;;;;;;;10.70;8.28;;;;;;;23.14;69.74;98597.11;1757026;80;21028;-44
2021/07/05 00:54:40;;;;;;;11.88;7.95;;;;;;;23.09;69.81;98590.17;1762522;80;20961;-45
2021/07/05 00:57:19;;;;;;;9.50;7.80;;;;;;;23.07;69.81;98582.20;1766968;80;21535;-45
2021/07/05 00:59:35;;;;;;;11.85;7.80;;;;;;;23.06;69.91;98582.81;1751040;80;21057;-45
2021/07/05 01:02:03;;;;;;;10.28;7.85;;;;;;;23.07;69.99;98580.83;1750951;80;21897;-45
2021/07/05 01:04:29;;;;;;;11.38;8.75;;;;;;;23.13;69.93;98577.59;1758088;80;20898;-44
2021/07/05 01:06:57;;;;;;;12.33;7.85;;;;;;;23.15;70.04;98586.95;1760952;80;20917;-44
2021/07/05 01:09:24;;;;;;;9.13;7.03;;;;;;;23.16;69.89;98580.81;1763857;80;20973;-45
2021/07/05 01:11:50;;;;;;;9.20;7.45;;;;;;;23.19;69.86;98570.97;1748947;81;21049;-45
2021/07/05 01:14:17;;;;;;;9.60;7.55;;;;;;;23.22;69.63;98574.81;1748842;82;21516;-45
2021/07/05 01:16:43;;;;;;;9.40;8.10;;;;;;;23.24;69.44;98568.19;1762424;80;21048;-44
2021/07/05 01:19:11;;;;;;;12.18;7.87;;;;;;;23.22;69.49;98567.29;1759511;80;21041;-44
2021/07/05 01:21:37;;;;;;;9.63;7.65;;;;;;;23.20;69.46;98574.50;1765232;80;21036;-45
2021/07/05 01:24:05;;;;;;;9.93;7.25;;;;;;;23.17;69.46;98578.97;1764834;80;21096;-45
2021/07/05 01:26:31;;;;;;;9.10;7.37;;;;;;;23.18;69.34;98579.12;1760325;80;21108;-44
2021/07/05 01:28:58;;;;;;;10.90;7.55;;;;;;;23.17;69.32;98573.44;1754861;81;21779;-45
2021/07/05 01:31:25;;;;;;;9.73;8.05;;;;;;;23.15;69.43;98577.27;1768114;80;20953;-45
2021/07/05 01:33:52;;;;;;;9.63;7.70;;;;;;;23.12;69.45;98578.82;1765507;80;21032;-44
2021/07/05 01:36:19;;;;;;;7.90;7.10;;;;;;;23.11;69.50;98583.58;1775798;80;21053;-44
2021/07/05 01:38:46;;;;;;;10.15;7.42;;;;;;;23.11;69.48;98582.20;1758830;80;21999;-45
2021/07/05 01:41:12;;;;;;;10.45;8.00;;;;;;;23.12;69.61;98582.36;1763396;80;20965;-45
2021/07/05 01:43:39;;;;;;;13.28;8.28;;;;;;;23.11;69.68;98585.58;1759804;80;21032;-45
2021/07/05 01:46:05;;;;;;;10.18;8.00;;;;;;;23.07;69.85;98581.59;1756433;81;21001;-44
2021/07/05 01:48:32;;;;;;;10.10;7.50;;;;;;;23.04;69.80;98590.83;1757704;80;21547;-44
2021/07/05 01:50:59;;;;;;;13.65;7.80;;;;;;;23.06;69.72;98591.72;1762336;80;21123;-45
2021/07/05 01:53:26;;;;;;;12.35;8.15;;;;;;;23.08;69.68;98592.04;1773573;80;21012;-44
2021/07/05 01:55:53;;;;;;;10.93;8.03;;;;;;;23.08;69.73;98594.19;1777398;80;20988;-44
2021/07/05 01:58:20;;;;;;;11.75;7.80;;;;;;;23.08;69.70;98594.80;1770547;80;21016;-44
2021/07/05 02:00:47;;;;;;;12.13;7.20;;;;;;;23.07;69.66;98602.33;1755859;80;21072;-44
2021/07/05 02:03:15;;;;;;;10.53;7.50;;;;;;;23.10;69.52;98601.39;1762598;80;21151;-45
2021/07/05 02:05:41;;;;;;;9.70;7.47;;;;;;;23.10;69.60;98603.39;1760773;80;20989;-44
2021/07/05 02:08:08;;;;;;;8.68;7.78;;;;;;;23.09;69.50;98609.53;1785004;80;21025;-45
2021/07/05 02:10:37;;;;;;;13.70;7.40;;;;;;;23.08;69.51;98608.63;1756302;80;21076;-45
2021/07/05 02:13:20;;;;;;;9.13;6.72;;;;;;;23.05;69.48;98605.39;1756976;81;21014;-44
2021/07/05 02:15:48;;;;;;;10.88;7.10;;;;;;;23.06;69.39;98602.78;1756023;80;21090;-44
2021/07/05 02:18:16;;;;;;;13.00;7.62;;;;;;;23.06;69.39;98608.31;1769427;80;21039;-44
2021/07/05 02:20:43;;;;;;;11.55;7.55;;;;;;;23.01;69.51;98609.70;1767516;80;21037;-44
2021/07/05 02:23:13;;;;;;;11.80;7.50;;;;;;;23.00;69.60;98615.67;1758907;80;20976;-44
2021/07/05 02:25:41;;;;;;;9.53;6.85;;;;;;;22.96;69.53;98605.55;1764389;80;21535;-44
2021/07/05 02:28:27;;;;;;;9.95;7.10;;;;;;;22.99;69.51;98610.02;1772245;80;21096;-44
2021/07/05 02:30:54;;;;;;;8.60;7.62;;;;;;;23.02;69.53;98614.61;1755952;80;20957;-44
2021/07/05 02:33:25;;;;;;;13.45;8.08;;;;;;;22.96;69.52;98614.45;1757364;80;21480;-44
2021/07/05 02:35:52;;;;;;;11.75;7.78;;;;;;;22.93;69.54;98613.39;1758520;80;20988;-44
2021/07/05 02:38:20;;;;;;;10.25;7.17;;;;;;;22.93;69.53;98613.39;1775799;80;21044;-44
2021/07/05 02:40:53;;;;;;;9.75;7.67;;;;;;;22.93;69.53;98616.16;1753620;80;21183;-44
2021/07/05 02:43:21;;;;;;;10.15;7.28;;;;;;;22.96;69.53;98613.08;1743259;80;21024;-44
2021/07/05 02:45:50;;;;;;;12.30;7.42;;;;;;;22.91;69.64;98619.22;1765738;80;20945;-44
2021/07/05 02:48:20;;;;;;;8.30;7.35;;;;;;;22.90;69.67;98611.53;1759915;80;21052;-44
2021/07/05 02:50:50;;;;;;;9.45;7.05;;;;;;;22.91;69.71;98615.07;1771334;80;21563;-44
2021/07/05 02:53:17;;;;;;;;;;;;;;;22.95;69.54;98614.30;1767562;80;21032;-44
2021/07/05 02:55:44;;;;;;;9.08;8.03;;;;;;;22.98;69.40;98611.24;1774643;80;20196;-45
2021/07/05 02:58:10;;;;;;;11.30;8.38;;;;;;;22.87;69.70;98613.84;1775878;80;21008;-44
2021/07/05 03:00:39;;;;;;;9.88;7.42;;;;;;;22.86;69.85;98617.84;1771620;80;21004;-44
2021/07/05 03:03:06;;;;;;;11.20;7.08;;;;;;;22.87;69.81;98620.76;1765915;80;21096;-44
2021/07/05 03:05:34;;;;;;;8.93;8.00;;;;;;;22.92;69.82;98619.38;1759043;80;21004;-45
2021/07/05 03:08:01;;;;;;;11.78;7.90;;;;;;;22.96;69.78;98613.84;1755714;81;20976;-45
2021/07/05 03:10:33;;;;;;;10.08;8.55;;;;;;;22.96;69.72;98615.23;1755967;80;20993;-44
2021/07/05 03:13:00;;;;;;;9.90;7.95;;;;;;;22.96;69.72;98614.45;1755554;80;21100;-45
2021/07/05 03:15:27;;;;;;;11.30;7.60;;;;;;;22.95;69.85;98615.07;1780306;80;20982;-45
2021/07/05 03:17:54;;;;;;;11.80;7.60;;;;;;;23.00;69.89;98612.30;1766311;79;21768;-45
2021/07/05 03:20:23;;;;;;;9.73;7.55;;;;;;;23.04;69.74;98617.70;1777395;80;21494;-44
2021/07/05 03:22:50;;;;;;;11.68;8.03;;;;;;;23.04;69.88;98620.46;1771689;80;21083;-45
2021/07/05 03:25:19;;;;;;;11.35;8.00;;;;;;;23.07;69.84;98618.15;1762951;80;21056;-45
2021/07/05 03:27:46;;;;;;;12.37;7.13;;;;;;;23.08;69.65;98618.30;1776212;80;21087;-45
2021/07/05 03:30:14;;;;;;;9.83;7.67;;;;;;;23.11;69.68;98621.52;1756766;81;21852;-45
2021/07/05 03:32:41;;;;;;;8.25;7.40;;;;;;;23.15;69.54;98624.89;1761532;80;21024;-45
2021/07/05 03:35:09;;;;;;;8.63;7.35;;;;;;;23.20;69.45;98628.42;1770891;80;20992;-45
2021/07/05 03:37:36;;;;;;;10.80;8.13;;;;;;;23.23;69.30;98627.52;1760313;80;21056;-45
2021/07/05 03:40:05;;;;;;;9.15;7.08;;;;;;;23.24;69.41;98629.03;1735517;80;21088;-45
2021/07/05 03:42:31;;;;;;;11.33;7.30;;;;;;;23.24;69.64;98629.80;1757140;81;21082;-45
2021/07/05 03:44:59;;;;;;;8.70;7.10;;;;;;;23.29;69.56;98633.33;1742741;80;21041;-45
2021/07/05 03:47:25;;;;;;;9.23;7.12;;;;;;;23.30;69.42;98629.34;1750246;80;20953;-45
2021/07/05 03:49:51;;;;;;;11.35;7.62;;;;;;;23.32;69.49;98625.52;1762878;80;21027;-45
2021/07/05 03:52:18;;;;;;;10.43;7.80;;;;;;;23.35;69.58;98621.04;1747230;80;21550;-45
2021/07/05 03:54:45;;;;;;;10.95;8.60;;;;;;;23.37;69.49;98613.83;1746433;80;21151;-45
2021/07/05 03:57:22;;;;;;;11.90;7.08;;;;;;;23.38;69.28;98622.89;1738135;80;21087;-44
2021/07/05 03:59:40;;;;;;;11.55;7.37;;;;;;;23.35;69.58;98616.89;1752268;80;21076;-45
2021/07/05 04:02:08;;;;;;;10.43;7.97;;;;;;;23.41;69.70;98620.58;1753681;80;21092;-44
2021/07/05 04:04:35;;;;;;;8.80;7.05;;;;;;;23.47;69.56;98622.14;1759560;81;21001;-45
2021/07/05 04:07:03;;;;;;;12.10;8.33;;;;;;;23.51;69.43;98619.36;1758526;80;20972;-44
2021/07/05 04:09:31;;;;;;;10.48;7.65;;;;;;;23.53;69.26;98616.14;1768314;81;20988;-44
2021/07/05 04:11:58;;;;;;;8.65;6.92;;;;;;;23.53;69.39;98609.96;1753048;80;21574;-45
2021/07/05 04:14:24;;;;;;;9.90;7.85;;;;;;;23.58;69.05;98614.09;1754408;81;21888;-44
2021/07/05 04:16:51;;;;;;;8.35;7.60;;;;;;;23.61;69.06;98608.42;1754078;81;21425;-44
2021/07/05 04:19:17;;;;;;;11.95;7.65;;;;;;;23.63;69.01;98608.70;1713083;83;21149;-44
2021/07/05 04:21:44;;;;;;;9.50;8.13;;;;;;;23.64;69.21;98603.94;1719685;83;21428;-45
2021/07/05 04:24:10;;;;;;;9.33;7.72;;;;;;;23.66;69.05;98602.27;1716347;83;21044;-45
2021/07/05 04:26:37;;;;;;;10.88;8.50;;;;;;;23.69;68.86;98609.62;1721692;82;21766;-44
2021/07/05 04:29:04;;;;;;;10.18;7.50;;;;;;;23.69;68.82;98609.62;1714018;82;21005;-45
2021/07/05 04:31:32;;;;;;;11.53;8.10;;;;;;;23.71;69.00;98607.17;1691583;84;21188;-44
2021/07/05 04:33:58;;;;;;;8.08;7.25;;;;;;;23.74;68.98;98606.84;1699582;83;21732;-45
2021/07/05 04:36:25;;;;;;;9.53;7.10;;;;;;;23.75;68.94;98607.77;1694051;84;21033;-45
2021/07/05 04:38:51;;;;;;;9.00;7.50;;;;;;;23.80;68.75;98612.67;1696011;84;21040;-44
2021/07/05 04:41:18;;;;;;;9.30;8.38;;;;;;;23.85;68.61;98610.50;1705434;82;21101;-44
2021/07/05 04:43:45;;;;;;;10.85;7.92;;;;;;;23.62;68.42;98568.45;1716485;82;21540;-45
2021/07/05 04:46:11;;;;;;;8.33;7.53;;;;;;;23.92;68.27;98613.69;1712532;83;21555;-44
2021/07/05 04:48:39;;;;;;;11.53;8.05;;;;;;;23.94;68.76;98614.00;1707503;83;20961;-45
2021/07/05 04:51:08;;;;;;;7.92;7.15;;;;;;;24.03;68.64;98609.80;1709495;83;21045;-45
2021/07/05 04:53:34;;;;;;;9.48;7.92;;;;;;;24.11;67.96;98615.14;1716884;82;21084;-45
2021/07/05 04:56:01;;;;;;;11.38;8.23;;;;;;;24.18;67.92;98609.92;1711541;83;21719;-45
2021/07/05 04:58:27;;;;;;;10.35;8.50;;;;;;;24.24;67.85;98612.20;1716660;82;21072;-45
2021/07/05 05:00:55;;;;;;;9.03;7.67;;;;;;;24.30;67.58;98611.72;1711382;82;21336;-45
2021/07/05 05:03:22;;;;;;;9.13;7.22;;;;;;;24.35;67.34;98611.05;1715032;82;21619;-45
2021/07/05 05:05:49;;;;;;;8.73;7.83;;;;;;;24.43;67.04;98619.17;1721591;82;21052;-44
2021/07/05 05:08:16;;;;;;;10.55;8.40;;;;;;;24.48;66.87;98612.22;1722012;82;21960;-45
2021/07/05 05:10:43;;;;;;;12.65;8.83;;;;;;;24.49;66.59;98615.91;1705051;82;21468;-45
2021/07/05 05:13:10;;;;;;;11.55;8.93;;;;;;;24.50;66.67;98616.04;1697497;82;20982;-44
2021/07/05 05:15:38;;;;;;;13.65;8.15;;;;;;;24.51;66.78;98625.89;1713326;82;21053;-44
2021/07/05 05:18:06;;;;;;;12.80;7.83;;;;;;;24.55;66.91;98620.94;1636603;86;21017;-45
2021/07/05 05:20:35;;;;;;;8.83;7.92;;;;;;;24.64;66.97;98620.87;1704092;84;20922;-45
2021/07/05 05:23:02;;;;;;;10.55;8.63;;;;;;;24.75;66.99;98623.73;1702099;84;21009;-45
2021/07/05 05:25:28;;;;;;;9.63;8.63;;;;;;;24.82;66.56;98624.77;1709650;83;21112;-45
2021/07/05 05:27:55;;;;;;;11.22;8.63;;;;;;;24.86;66.20;98621.19;1714489;82;21049;-45
2021/07/05 05:30:23;;;;;;;10.75;8.78;;;;;;;24.92;66.24;98624.27;1738834;81;21009;-45
2021/07/05 05:32:51;;;;;;;8.55;7.62;;;;;;;25.00;66.29;98630.20;1758328;80;21190;-45
2021/07/05 05:35:21;;;;;;;11.88;7.92;;;;;;;25.14;66.38;98629.47;1752190;80;21077;-45
2021/07/05 05:37:50;;;;;;;11.75;8.38;;;;;;;25.28;65.61;98628.72;1744937;82;21027;-45
2021/07/05 05:40:17;;;;;;;9.70;8.53;;;;;;;25.33;65.56;98626.67;1740927;81;21578;-45
2021/07/05 05:42:43;;;;;;;10.23;8.73;;;;;;;25.41;65.20;98627.84;1751515;81;21072;-45
2021/07/05 05:45:11;;;;;;;9.45;8.35;;;;;;;25.49;64.96;98625.45;1760253;81;21428;-45
2021/07/05 05:47:38;;;;;;;10.32;8.33;;;;;;;25.58;64.49;98623.22;1764266;81;21566;-45
2021/07/05 05:50:06;;;;;;;9.45;8.53;;;;;;;25.65;64.36;98625.62;1760867;80;21029;-45
2021/07/05 05:52:33;;;;;;;10.10;9.05;;;;;;;25.71;63.91;98625.08;1710376;83;21060;-44
2021/07/05 05:54:59;;;;;;;9.98;8.53;;;;;;;25.73;63.92;98628.16;1721588;82;21087;-44
2021/07/05 05:57:27;;;;;;;11.00;9.28;;;;;;;25.75;64.48;98628.45;1754126;81;21080;-45
2021/07/05 05:59:58;;;;;;;9.15;8.10;;;;;;;25.77;64.07;98627.33;1767392;80;21527;-45
2021/07/05 06:02:26;;;;;;;9.48;7.53;;;;;;;25.78;63.67;98624.70;1772742;80;21572;-44
2021/07/05 06:04:53;;;;;;;9.45;7.85;;;;;;;25.83;63.62;98629.58;1756735;80;20973;-45
2021/07/05 06:07:19;;;;;;;10.55;8.80;;;;;;;25.89;63.53;98624.89;1710482;83;21547;-45
2021/07/05 06:09:47;;;;;;;9.35;8.43;;;;;;;25.94;63.24;98628.38;1712391;83;21143;-45
2021/07/05 06:12:14;;;;;;;12.45;9.58;;;;;;;25.98;63.44;98620.62;1706118;83;20977;-45
2021/07/05 06:14:41;;;;;;;12.40;8.60;;;;;;;26.01;63.40;98622.42;1698373;83;21005;-45
2021/07/05 06:17:07;;;;;;;8.38;7.55;;;;;;;26.02;62.97;98630.13;1688346;83;21080;-45
2021/07/05 06:19:34;;;;;;;9.80;8.05;;;;;;;26.05;63.24;98627.15;1710620;83;21029;-45
2021/07/05 06:22:02;;;;;;;11.28;8.93;;;;;;;26.12;62.92;98626.77;1713821;83;21114;-45
2021/07/05 06:24:29;;;;;;;9.90;8.25;;;;;;;26.16;62.28;98618.99;1738313;81;21039;-45
2021/07/05 06:26:56;;;;;;;12.43;8.63;;;;;;;26.17;62.36;98616.98;1728939;81;21536;-44
2021/07/05 06:29:22;;;;;;;9.80;8.78;;;;;;;26.16;62.39;98614.83;1769717;80;21077;-45
2021/07/05 06:31:49;;;;;;;10.60;8.43;;;;;;;26.20;62.70;98611.22;1771249;80;21504;-45
2021/07/05 06:34:16;;;;;;;10.35;8.83;;;;;;;26.27;63.30;98612.24;1755433;80;21107;-45
2021/07/05 06:36:42;;;;;;;10.35;8.33;;;;;;;26.34;63.17;98609.05;1760451;80;21045;-45
2021/07/05 06:39:09;;;;;;;8.95;8.05;;;;;;;26.36;62.97;98609.34;1766470;80;21522;-45
2021/07/05 06:41:36;;;;;;;11.33;8.70;;;;;;;26.42;63.06;98611.43;1763998;80;21064;-45
2021/07/05 06:44:03;;;;;;;11.73;9.28;;;;;;;26.47;62.92;98614.91;1761985;81;21085;-45
2021/07/05 06:46:30;;;;;;;9.10;8.18;;;;;;;26.54;62.89;98615.88;1764019;80;21826;-45
2021/07/05 06:48:56;;;;;;;11.68;7.75;;;;;;;26.58;62.40;98613.64;1760054;81;21554;-44
2021/07/05 06:51:23;;;;;;;9.93;8.00;;;;;;;26.64;62.52;98613.10;1706849;83;21637;-45
2021/07/05 06:53:50;;;;;;;10.55;7.78;;;;;;;26.68;62.22;98617.20;1709133;83;21079;-45
2021/07/05 06:56:17;;;;;;;12.73;8.80;;;;;;;26.70;62.88;98615.34;1709809;83;21577;-45
2021/07/05 06:58:44;;;;;;;13.93;9.33;;;;;;;26.75;62.81;98613.25;1695403;83;21036;-45
2021/07/05 07:01:10;;;;;;;9.63;8.00;;;;;;;26.80;62.57;98611.16;1700558;83;21629;-45
2021/07/05 07:03:37;;;;;;;9.85;8.05;;;;;;;26.83;62.36;98602.60;1718333;83;21027;-44
2021/07/05 07:06:03;;;;;;;11.70;8.88;;;;;;;26.87;62.02;98608.63;1716212;83;21843;-45
2021/07/05 07:08:31;;;;;;;8.60;7.70;;;;;;;26.90;62.51;98603.47;1717966;82;21112;-45
2021/07/05 07:10:58;;;;;;;8.45;7.65;;;;;;;26.98;62.84;98599.77;1704656;83;21776;-45
2021/07/05 07:13:25;;;;;;;9.60;7.47;;;;;;;27.06;62.07;98598.73;1706992;83;20971;-45
2021/07/05 07:15:54;;;;;;;9.65;7.60;;;;;;;27.10;61.84;98591.69;1713186;83;21056;-45
2021/07/05 07:20:56;;;;;;;11.10;7.30;;;;;;;27.35;61.25;98594.35;1716667;83;21598;-45
2021/07/05 07:23:23;;;;;;;10.65;6.87;;;;;;;27.44;60.73;98592.02;1681510;85;21099;-45
2021/07/05 07:25:50;;;;;;;10.75;7.92;;;;;;;27.50;60.85;98600.57;1696613;83;21066;-45
2021/07/05 07:28:17;;;;;;;8.03;7.30;;;;;;;27.55;60.67;98601.25;1700317;84;20981;-45
2021/07/05 07:30:44;;;;;;;13.22;6.40;;;;;;;27.61;60.72;98599.91;1700177;83;21558;-45
2021/07/05 07:33:11;;;;;;;9.68;7.33;;;;;;;27.72;59.80;98602.80;1691536;84;21095;-45
2021/07/05 07:35:37;;;;;;;15.28;7.40;;;;;;;27.84;60.04;98600.22;1693976;83;21097;-45
2021/07/05 07:38:04;;;;;;;8.05;6.28;;;;;;;27.93;59.62;98597.25;1693957;83;21531;-45
2021/07/05 07:40:37;;;;;;;9.78;6.55;;;;;;;27.98;59.41;98599.97;1687163;83;20957;-45
2021/07/05 07:43:02;;;;;;;10.13;6.37;;;;;;;28.03;59.13;98604.16;1706001;83;21014;-47
2021/07/05 07:45:29;;;;;;;7.20;5.95;;;;;;;28.09;59.67;98609.77;1705027;83;21005;-45
2021/07/05 07:47:55;;;;;;;8.60;5.65;;;;;;;28.15;58.17;98613.40;1695251;83;21572;-47
2021/07/05 07:50:22;;;;;;;7.50;6.08;;;;;;;28.20;57.66;98615.47;1695101;83;21028;-47
2021/07/05 07:52:49;;;;;;;7.85;6.05;;;;;;;28.28;57.77;98617.91;1693716;83;21040;-47
2021/07/05 07:55:16;;;;;;;10.38;6.33;;;;;;;28.37;57.50;98611.39;1712107;83;21544;-47
2021/07/05 07:57:43;;;;;;;12.47;6.17;;;;;;;28.45;57.55;98613.21;1712573;83;21014;-47
2021/07/05 08:00:13;;;;;;;8.60;6.28;;;;;;;28.58;57.11;98614.16;1693458;83;21088;-48
2021/07/05 08:02:39;;;;;;;9.00;5.60;;;;;;;28.74;57.02;98628.08;1723714;82;20949;-47
2021/07/05 08:05:08;;;;;;;9.50;6.08;;;;;;;28.87;56.31;98623.56;1691800;82;21302;-48
2021/07/05 08:07:40;;;;;;;9.67;6.20;;;;;;;28.95;54.64;98621.05;1695312;83;21496;-47
2021/07/05 08:10:05;;;;;;;7.17;5.80;;;;;;;28.98;53.95;98633.25;1710732;83;21427;-47
2021/07/05 08:12:31;;;;;;;7.85;6.03;;;;;;;29.01;53.81;98627.42;1705072;83;21201;-47
2021/07/05 08:14:59;;;;;;;6.20;5.60;;;;;;;29.11;53.72;98632.14;1712343;83;21009;-47
2021/07/05 08:17:26;;;;;;;7.03;6.20;;;;;;;29.21;53.05;98630.66;1696934;83;21036;-48
2021/07/05 08:19:55;;;;;;;7.37;5.78;;;;;;;29.32;53.71;98629.31;1700551;83;22115;-47
2021/07/05 08:22:22;;;;;;;6.97;5.12;;;;;;;29.44;51.94;98621.70;1705676;82;21057;-46
2021/07/05 08:24:52;;;;;;;6.67;4.95;;;;;;;29.51;51.54;98625.41;1688294;83;21190;-47
2021/07/05 08:27:18;;;;;;;7.60;5.30;;;;;;;29.57;50.22;98631.14;1701657;83;21041;-46
2021/07/05 08:29:45;;;;;;;5.95;5.40;;;;;;;29.54;49.63;98634.93;1716528;81;20983;-46
2021/07/05 08:32:12;;;;;;;7.83;5.25;;;;;;;29.43;50.17;98634.94;1745694;80;21072;-46
2021/07/05 08:34:38;;;;;;;8.13;4.95;;;;;;;29.35;50.60;98628.30;1756003;81;21049;-46
2021/07/05 08:37:06;;;;;;;6.47;4.95;;;;;;;29.31;50.70;98627.78;1759045;80;22330;-46
2021/07/05 08:39:33;;;;;;;6.78;5.25;;;;;;;29.31;50.18;98631.34;1736043;80;20953;-46
2021/07/05 08:42:00;;;;;;;7.10;5.30;;;;;;;29.27;50.64;98625.22;1746370;80;21550;-46
2021/07/05 08:44:26;;;;;;;9.85;4.90;;;;;;;29.25;51.04;98626.34;1741802;80;21048;-43
2021/07/05 08:46:54;;;;;;;5.30;4.80;;;;;;;29.27;50.93;98624.45;1753637;80;21033;-43
2021/07/05 08:49:22;;;;;;;6.67;4.97;;;;;;;29.27;50.43;98627.24;1711745;83;21097;-44
2021/07/05 08:51:49;;;;;;;6.67;5.17;;;;;;;29.26;50.30;98622.92;1723814;82;20965;-43
2021/07/05 08:54:15;;;;;;;9.75;4.78;;;;;;;29.28;50.30;98623.19;1733360;82;21471;-44
2021/07/05 08:56:42;;;;;;;5.42;4.80;;;;;;;29.36;50.53;98621.45;1721342;82;21009;-43
2021/07/05 08:59:09;;;;;;;7.50;5.03;;;;;;;29.47;51.30;98621.48;1716255;82;21033;-43
2021/07/05 09:01:35;;;;;;;6.12;4.53;;;;;;;29.57;50.63;98619.20;1689814;82;21086;-43
2021/07/05 09:04:02;;;;;;;8.58;4.58;;;;;;;29.60;49.28;98628.72;1685191;82;21080;-44
2021/07/05 09:06:31;;;;;;;9.03;3.80;;;;;;;29.58;49.00;98629.85;1690215;82;21471;-43
2021/07/05 09:09:04;;;;;;;8.00;3.85;;;;;;;29.55;48.80;98629.48;1692516;82;21085;-43
2021/07/05 09:11:42;;;;;;;7.37;4.10;;;;;;;29.58;48.19;98627.06;1681445;85;21056;-43
2021/07/05 09:14:20;;;;;;;4.17;3.58;;;;;;;29.64;48.00;98634.05;1701637;83;21295;-43
2021/07/05 09:16:51;;;;;;;;;;;;;;;29.68;47.61;98635.95;1699770;83;20946;-43
2021/07/05 09:19:27;;;;;;;6.87;4.53;;;;;;;29.75;48.33;98636.86;1705026;82;20172;-44
2021/07/05 09:22:01;;;;;;;30.82;5.37;;;;;;;29.76;47.91;98643.98;1703895;83;20989;-44
2021/07/05 09:24:43;;;;;;;4.58;3.98;;;;;;;29.89;48.02;98639.30;1675713;83;21069;-45
2021/07/05 09:27:23;;;;;;;4.97;4.05;;;;;;;29.99;46.78;98637.77;1682469;83;21198;-45
2021/07/05 09:29:50;;;;;;;5.30;3.90;;;;;;;29.99;46.29;98641.97;1689192;83;21599;-43
2021/07/05 09:32:29;;;;;;;7.20;3.50;;;;;;;29.97;46.89;98639.67;1669243;84;21042;-43
2021/07/05 09:34:56;;;;;;;8.78;3.75;;;;;;;30.02;47.50;98637.52;1684277;84;21039;-43
2021/07/05 09:37:26;;;;;;;7.00;3.90;;;;;;;30.04;46.24;98641.97;1690328;84;21510;-43
2021/07/05 09:40:08;;;;;;;4.12;3.60;;;;;;;29.99;46.14;98635.75;1684630;85;21843;-43
2021/07/05 09:42:49;;;;;;;4.50;3.65;;;;;;;29.93;46.18;98638.41;1681136;84;20927;-43
2021/07/05 09:45:57;;;;;;;4.60;3.80;;;;;;;29.96;45.75;98638.80;1781208;78;22818;-44
2021/07/05 09:48:25;;;;;;;6.22;3.60;;;;;;;29.89;45.91;98642.09;1733069;80;21514;-44
2021/07/05 09:51:00;;;;;;;5.72;4.22;;;;;;;29.91;45.85;98636.77;1752451;81;21073;-44
2021/07/05 09:53:40;;;;;;;5.15;3.75;;;;;;;29.94;46.17;98644.89;1734529;81;21028;-44
2021/07/05 09:56:27;;;;;;;4.55;3.60;;;;;;;29.96;45.42;98637.41;1741867;81;20957;-44
2021/07/05 09:59:15;;;;;;;6.47;4.00;;;;;;;29.97;45.60;98635.48;1752337;80;20977;-44
2021/07/05 10:01:49;;;;;;;6.45;4.47;;;;;;;30.03;46.24;98635.48;1701540;83;20948;-44
2021/07/05 10:04:27;;;;;;;5.58;4.55;;;;;;;30.10;46.37;98632.19;1709304;83;21104;-44
2021/07/05 10:06:58;;;;;;;5.35;3.70;;;;;;;30.16;46.70;98638.54;1685955;85;20988;-44
2021/07/05 10:09:37;;;;;;;5.83;4.22;;;;;;;30.23;47.07;98638.01;1687867;83;21581;-44
2021/07/05 10:12:26;;;;;;;7.45;4.20;;;;;;;30.31;46.05;98632.64;1689760;84;21532;-44
2021/07/05 10:15:11;;;;;;;4.30;3.90;;;;;;;30.34;47.00;98629.61;1709733;84;21507;-44
2021/07/05 10:17:42;;;;;;;5.67;4.20;;;;;;;30.52;45.74;98627.67;1699989;82;21254;-44
2021/07/05 10:20:14;;;;;;;7.80;4.30;;;;;;;30.55;44.98;98639.23;1709854;82;21499;-44
2021/07/05 10:22:46;;;;;;;5.78;4.22;;;;;;;30.59;45.08;98635.55;1666991;84;21051;-44
2021/07/05 10:25:13;;;;;;;7.30;4.12;;;;;;;30.73;44.98;98635.75;1673479;84;21076;-44
2021/07/05 10:27:40;;;;;;;6.83;4.33;;;;;;;30.85;45.75;98628.83;1687607;82;21056;-44
2021/07/05 10:30:09;;;;;;;6.55;3.90;;;;;;;31.02;46.05;98628.16;1709476;82;21160;-44
2021/07/05 10:32:36;;;;;;;6.08;4.08;;;;;;;31.15;45.23;98626.94;1710207;83;20989;-44
2021/07/05 10:35:04;;;;;;;5.12;4.33;;;;;;;31.18;44.57;98630.09;1709118;82;21068;-44
2021/07/05 10:37:43;;;;;;;8.35;4.40;;;;;;;31.17;45.60;98627.19;1713988;82;20981;-44
2021/07/05 10:40:10;;;;;;;4.33;3.85;;;;;;;31.25;45.12;98621.16;1712072;83;21005;-44
2021/07/05 10:42:40;;;;;;;4.65;3.62;;;;;;;31.33;44.61;98622.11;1700423;83;21116;-44
2021/07/05 10:45:14;;;;;;;6.03;3.83;;;;;;;31.48;44.94;98614.13;1697278;83;20963;-44
2021/07/05 10:47:53;;;;;;;9.98;4.58;;;;;;;31.62;43.36;98615.06;1687503;82;21829;-47
2021/07/05 10:50:42;;;;;;;4.60;4.00;;;;;;;31.71;43.26;98614.00;1695365;83;21001;-47
2021/07/05 10:53:22;;;;;;;5.28;3.65;;;;;;;31.86;43.61;98608.75;1713294;82;21392;-43
2021/07/05 10:55:51;;;;;;;4.58;3.80;;;;;;;32.07;41.54;98614.05;1700953;82;21021;-44
2021/07/05 10:58:33;;;;;;;4.87;3.42;;;;;;;32.17;41.34;98616.66;1717756;80;20946;-44
2021/07/05 11:01:05;;;;;;;5.12;3.45;;;;;;;32.29;41.52;98618.05;1741546;80;21028;-44
2021/07/05 11:03:43;;;;;;;5.92;3.80;;;;;;;32.50;41.65;98612.74;1734814;81;21511;-44
2021/07/05 11:06:34;;;;;;;6.58;3.72;;;;;;;32.77;41.71;98610.94;1739828;80;21108;-44
2021/07/05 11:09:06;;;;;;;7.45;3.70;;;;;;;33.06;40.34;98601.63;1734759;81;21685;-44
2021/07/05 11:11:33;;;;;;;8.68;3.83;;;;;;;33.27;39.72;98598.28;1696887;84;20973;-44
2021/07/05 11:14:20;;;;;;;4.97;3.90;;;;;;;33.45;40.16;98600.33;1702108;84;21487;-44
2021/07/05 11:17:08;;;;;;;5.33;3.67;;;;;;;33.70;39.22;98593.93;1721772;81;21480;-44
2021/07/05 11:19:50;;;;;;;7.30;3.77;;;;;;;33.90;39.90;98597.55;1682564;84;21280;-44
2021/07/05 11:22:25;;;;;;;6.65;4.33;;;;;;;34.22;38.90;98598.30;1704974;84;21850;-44
2021/07/05 11:25:07;;;;;;;6.40;3.35;;;;;;;34.36;37.95;98597.66;1704565;83;20976;-44
2021/07/05 11:27:49;;;;;;;5.80;3.45;;;;;;;34.39;37.43;98588.88;1740874;82;21626;-44
2021/07/05 11:30:24;;;;;;;3.98;3.40;;;;;;;34.49;38.50;98597.65;1717622;81;21024;-44
2021/07/05 11:33:12;;;;;;;6.05;3.62;;;;;;;34.78;37.28;98590.94;1741835;80;21025;-44
2021/07/05 11:35:58;;;;;;;6.10;3.27;;;;;;;35.10;37.19;98592.83;1744346;81;22113;-44
2021/07/05 11:38:40;;;;;;;5.20;3.10;;;;;;;35.21;36.32;98558.77;1745393;80;21037;-44
2021/07/05 11:41:24;;;;;;;5.12;3.40;;;;;;;35.61;35.91;98590.37;1692613;82;20981;-44
2021/07/05 11:43:58;;;;;;;4.55;3.10;;;;;;;35.73;34.26;98585.98;1747110;80;21037;-44